Time;durP1;ratioP1;P1;durP2;ratioP2;P2;SDS_P1;SDS_P2;PMS_P1;PMS_P2;Temp;Humidity;BMP_temperature;BMP_pressure;BME280_temperature;BME280_humidity;BME280_pressure;Samples;Min_cycle;Max_cycle;Signal;HPM_P1;HPM_P2
2022/03/14 00:01:16;;;;;;;2.97;2.78;;;21.20;38.70;;;;;;5082325;27;43949;-60
2022/03/14 00:03:53;;;;;;;3.20;2.90;;;21.20;38.70;;;;;;5083217;27;43404;-60
2022/03/14 00:06:21;;;;;;;3.42;3.13;;;21.20;38.70;;;;;;5080070;28;44128;-60
2022/03/14 00:08:50;;;;;;;3.40;3.10;;;21.10;38.70;;;;;;5082939;27;43845;-60
2022/03/14 00:11:23;;;;;;;3.60;3.30;;;21.10;38.70;;;;;;5083155;27;43448;-60
2022/03/14 00:13:50;;;;;;;3.05;2.80;;;21.10;38.70;;;;;;5082675;28;43537;-60
2022/03/14 00:16:26;;;;;;;2.90;2.70;;;21.10;38.80;;;;;;5086409;27;43396;-60
2022/03/14 00:18:55;;;;;;;3.90;2.95;;;21.10;38.80;;;;;;5086292;27;44312;-60
2022/03/14 00:21:25;;;;;;;3.20;2.90;;;21.10;38.70;;;;;;5085509;28;43498;-60
2022/03/14 00:23:55;;;;;;;3.20;2.90;;;21.10;38.70;;;;;;5086314;27;43483;-60
2022/03/14 00:26:23;;;;;;;3.28;2.97;;;21.10;38.80;;;;;;5086519;28;44082;-60
2022/03/14 00:28:51;;;;;;;3.00;2.80;;;21.10;38.80;;;;;;5086351;27;43545;-60
2022/03/14 00:31:23;;;;;;;2.90;2.70;;;21.10;38.90;;;;;;5081508;28;43482;-60
2022/03/14 00:33:51;;;;;;;3.00;2.80;;;21.10;38.80;;;;;;5083386;28;43510;-60
2022/03/14 00:36:19;;;;;;;3.15;2.95;;;21.00;38.80;;;;;;5085030;28;43491;-60
2022/03/14 00:38:47;;;;;;;3.10;2.90;;;21.10;38.80;;;;;;5086037;27;44144;-60
2022/03/14 00:41:16;;;;;;;2.95;2.75;;;21.00;38.80;;;;;;5086125;27;43491;-60
2022/03/14 00:43:44;;;;;;;2.80;2.60;;;21.00;38.90;;;;;;5085832;27;43425;-60
2022/03/14 00:46:14;;;;;;;2.80;2.60;;;21.00;38.80;;;;;;5084818;28;43513;-60
2022/03/14 00:48:42;;;;;;;2.90;2.60;;;21.00;38.90;;;;;;5086060;28;44982;-60
2022/03/14 00:51:10;;;;;;;3.15;2.95;;;21.00;38.90;;;;;;5085955;27;43480;-59
2022/03/14 00:53:38;;;;;;;2.67;2.47;;;21.00;38.90;;;;;;5086267;27;43438;-60
2022/03/14 00:56:06;;;;;;;2.75;2.55;;;20.90;38.90;;;;;;5085351;27;43609;-60
2022/03/14 00:58:34;;;;;;;3.22;2.90;;;20.90;38.90;;;;;;5086024;27;45063;-60
2022/03/14 01:01:03;;;;;;;3.10;2.90;;;20.90;39.00;;;;;;5086096;27;43431;-60
2022/03/14 01:03:32;;;;;;;3.10;2.80;;;20.90;38.90;;;;;;5085026;27;43488;-60
2022/03/14 01:06:00;;;;;;;3.70;2.70;;;20.90;39.60;;;;;;5084226;28;43496;-60
2022/03/14 01:08:27;;;;;;;3.10;2.83;;;20.90;38.90;;;;;;5085823;28;43806;-60
2022/03/14 01:10:55;;;;;;;3.20;2.83;;;20.90;39.00;;;;;;5085767;27;43720;-61
2022/03/14 01:13:22;;;;;;;3.08;2.85;;;20.90;39.00;;;;;;5083812;28;43437;-60
2022/03/14 01:15:50;;;;;;;3.00;2.75;;;20.90;39.00;;;;;;5084663;28;44035;-60
2022/03/14 01:18:18;;;;;;;3.13;2.92;;;20.90;39.10;;;;;;5085363;27;44069;-60
2022/03/14 01:20:46;;;;;;;3.00;2.70;;;20.80;39.10;;;;;;5085538;27;43682;-60
2022/03/14 01:23:14;;;;;;;2.92;2.60;;;20.80;39.10;;;;;;5085561;27;43486;-59
2022/03/14 01:25:42;;;;;;;3.60;3.30;;;20.80;39.10;;;;;;5085068;27;43543;-60
2022/03/14 01:28:10;;;;;;;3.00;2.80;;;20.80;39.10;;;;;;5085158;27;43819;-60
2022/03/14 01:30:40;;;;;;;3.38;3.08;;;20.90;39.10;;;;;;5085099;27;43430;-60
2022/03/14 01:33:07;;;;;;;2.80;2.60;;;20.80;39.10;;;;;;5085289;28;43519;-60
2022/03/14 01:35:36;;;;;;;2.90;2.70;;;20.80;39.10;;;;;;5085295;27;43442;-60
2022/03/14 01:38:04;;;;;;;3.20;2.90;;;20.80;39.20;;;;;;5084292;28;44671;-60
2022/03/14 01:40:31;;;;;;;3.03;2.83;;;20.80;39.20;;;;;;5085390;27;43432;-60
2022/03/14 01:42:59;;;;;;;3.13;2.92;;;20.80;39.20;;;;;;5085127;27;43796;-60
2022/03/14 01:45:27;;;;;;;3.42;3.13;;;20.80;39.20;;;;;;5084900;27;43464;-60
2022/03/14 01:47:54;;;;;;;3.55;2.70;;;20.80;39.20;;;;;;5085163;27;44673;-60
2022/03/14 01:50:23;;;;;;;2.72;2.53;;;20.80;39.30;;;;;;5085094;27;43431;-60
2022/03/14 01:52:50;;;;;;;3.20;2.90;;;20.80;39.30;;;;;;5084998;27;43479;-60
2022/03/14 01:55:18;;;;;;;2.90;2.70;;;20.70;39.20;;;;;;5084937;27;43454;-60
2022/03/14 01:57:46;;;;;;;3.08;2.58;;;20.80;39.30;;;;;;5084952;27;44976;-60
2022/03/14 02:00:14;;;;;;;3.08;2.88;;;20.70;39.30;;;;;;5085133;27;43654;-60
2022/03/14 02:02:42;;;;;;;3.03;2.83;;;20.70;39.30;;;;;;5082230;28;43480;-60
2022/03/14 02:05:12;;;;;;;2.95;2.75;;;20.70;39.30;;;;;;5084387;27;43620;-60
2022/03/14 02:07:40;;;;;;;3.08;2.78;;;20.70;39.30;;;;;;5084213;27;44784;-60
2022/03/14 02:10:08;;;;;;;2.90;2.70;;;20.70;39.30;;;;;;5084881;28;43762;-60
2022/03/14 02:12:36;;;;;;;2.80;2.60;;;20.60;39.40;;;;;;5084099;27;43469;-60
2022/03/14 02:15:03;;;;;;;3.10;2.80;;;20.60;40.10;;;;;;5083818;27;44047;-60
2022/03/14 02:17:31;;;;;;;3.47;2.83;;;20.60;39.40;;;;;;5084699;27;43797;-60
2022/03/14 02:19:59;;;;;;;3.22;2.95;;;20.60;39.50;;;;;;5084380;27;43860;-60
2022/03/14 02:22:26;;;;;;;3.35;2.80;;;20.60;39.50;;;;;;5082849;28;44003;-61
2022/03/14 02:24:54;;;;;;;2.85;2.65;;;20.60;39.50;;;;;;5084356;27;43453;-60
2022/03/14 02:27:22;;;;;;;3.08;2.88;;;20.60;39.50;;;;;;5084314;27;43812;-60
2022/03/14 02:29:50;;;;;;;3.10;2.90;;;20.60;39.50;;;;;;5080496;28;43394;-60
2022/03/14 02:32:18;;;;;;;3.00;2.80;;;20.50;39.50;;;;;;5079253;28;43461;-60
2022/03/14 02:34:45;;;;;;;3.20;3.00;;;20.60;39.50;;;;;;5079537;28;44082;-60
2022/03/14 02:37:13;;;;;;;3.20;3.00;;;20.60;39.50;;;;;;5082363;27;43812;-60
2022/03/14 02:39:40;;;;;;;3.05;2.78;;;20.50;39.50;;;;;;5083008;27;43497;-60
2022/03/14 02:42:08;;;;;;;2.90;2.70;;;20.50;39.50;;;;;;5079286;27;43439;-60
2022/03/14 02:44:40;;;;;;;3.00;2.70;;;20.50;39.50;;;;;;5080106;27;43558;-60
2022/03/14 02:47:07;;;;;;;3.00;2.80;;;20.50;39.50;;;;;;5082967;27;44670;-60
2022/03/14 02:49:37;;;;;;;2.78;2.58;;;20.50;39.50;;;;;;5079028;28;43425;-60
2022/03/14 02:52:05;;;;;;;2.78;2.58;;;20.50;39.50;;;;;;5081193;27;43545;-60
2022/03/14 02:54:33;;;;;;;3.08;2.88;;;20.50;39.50;;;;;;5082629;28;43623;-60
2022/03/14 02:57:01;;;;;;;2.90;2.70;;;20.50;39.50;;;;;;5083316;28;45067;-60
2022/03/14 02:59:28;;;;;;;2.90;2.70;;;20.50;39.50;;;;;;5083885;27;43955;-60
2022/03/14 03:01:56;;;;;;;3.20;2.97;;;20.50;39.50;;;;;;5083171;27;43447;-59
2022/03/14 03:04:24;;;;;;;3.45;3.15;;;20.50;39.50;;;;;;5083823;27;43656;-60
2022/03/14 03:06:53;;;;;;;2.60;2.40;;;20.40;39.50;;;;;;5099385;27;44050;-59
2022/03/14 03:09:21;;;;;;;3.17;2.97;;;20.40;39.60;;;;;;5083902;27;44022;-60
2022/03/14 03:11:49;;;;;;;2.97;2.72;;;20.40;39.50;;;;;;5083805;27;43428;-60
2022/03/14 03:14:16;;;;;;;3.40;3.10;;;20.40;39.60;;;;;;5083339;27;43467;-60
2022/03/14 03:16:43;;;;;;;3.20;2.90;;;20.40;39.60;;;;;;5083725;27;44696;-60
2022/03/14 03:19:12;;;;;;;3.47;2.78;;;20.40;39.60;;;;;;5084029;27;44049;-60
2022/03/14 03:21:40;;;;;;;3.08;2.75;;;20.40;39.50;;;;;;5084079;28;43445;-60
2022/03/14 03:24:08;;;;;;;3.00;2.75;;;20.40;39.60;;;;;;5083786;27;43529;-60
2022/03/14 03:26:40;;;;;;;3.25;3.00;;;20.40;39.70;;;;;;5082331;28;44027;-60
2022/03/14 03:29:11;;;;;;;2.65;2.45;;;20.40;39.70;;;;;;5083526;27;44088;-60
2022/03/14 03:31:39;;;;;;;3.20;2.90;;;20.40;39.70;;;;;;5083946;27;43408;-60
2022/03/14 03:34:07;;;;;;;2.85;2.65;;;20.40;39.60;;;;;;5083333;27;43496;-61
2022/03/14 03:36:34;;;;;;;2.80;2.58;;;20.40;39.70;;;;;;5083325;27;43799;-60
2022/03/14 03:39:02;;;;;;;3.00;2.80;;;20.40;39.80;;;;;;5083495;28;43990;-60
2022/03/14 03:41:29;;;;;;;2.90;2.70;;;20.40;39.70;;;;;;5083662;27;43461;-60
2022/03/14 03:43:58;;;;;;;2.90;2.70;;;20.30;39.70;;;;;;5083766;27;43670;-60
2022/03/14 03:46:25;;;;;;;3.25;2.72;;;20.30;39.80;;;;;;5083095;28;45008;-60
2022/03/14 03:48:54;;;;;;;3.03;2.72;;;20.30;39.70;;;;;;5080531;27;45243;-60
2022/03/14 03:51:22;;;;;;;3.00;2.80;;;20.30;39.80;;;;;;5087227;27;43461;-60
2022/03/14 03:53:49;;;;;;;2.83;2.63;;;20.30;39.80;;;;;;5087093;27;43487;-60
2022/03/14 03:56:17;;;;;;;2.92;2.72;;;20.30;39.80;;;;;;5082884;28;44039;-60
2022/03/14 03:58:44;;;;;;;3.80;2.83;;;20.30;39.80;;;;;;5084642;28;43765;-60
2022/03/14 04:01:17;;;;;;;3.13;2.72;;;20.30;39.70;;;;;;5086782;27;43585;-60
2022/03/14 04:03:54;;;;;;;3.05;2.80;;;20.30;39.80;;;;;;5087353;27;43553;-60
2022/03/14 04:06:28;;;;;;;3.05;2.75;;;20.30;39.80;;;;;;5082713;28;44047;-60
2022/03/14 04:08:55;;;;;;;2.80;2.60;;;20.30;39.90;;;;;;5082180;28;43451;-59
2022/03/14 04:11:23;;;;;;;3.28;2.97;;;20.30;39.80;;;;;;5086892;27;43465;-60
2022/03/14 04:13:51;;;;;;;3.00;2.80;;;20.30;40.00;;;;;;5086432;27;43446;-60
2022/03/14 04:16:19;;;;;;;2.80;2.60;;;20.20;39.80;;;;;;5086198;28;44696;-60
2022/03/14 04:18:46;;;;;;;2.88;2.67;;;20.20;39.80;;;;;;5086736;28;43477;-60
2022/03/14 04:21:15;;;;;;;2.88;2.67;;;20.20;39.90;;;;;;5087048;27;43391;-60
2022/03/14 04:23:43;;;;;;;2.78;2.58;;;20.20;39.90;;;;;;5084131;28;43684;-59
2022/03/14 04:26:10;;;;;;;5.18;2.80;;;20.20;40.00;;;;;;5086256;27;43934;-60
2022/03/14 04:28:40;;;;;;;3.08;2.83;;;20.20;40.00;;;;;;5086219;27;43703;-60
2022/03/14 04:31:09;;;;;;;2.90;2.40;;;20.20;40.00;;;;;;5082253;28;43454;-60
2022/03/14 04:33:36;;;;;;;2.70;2.50;;;20.20;40.00;;;;;;5083193;28;43438;-60
2022/03/14 04:36:04;;;;;;;2.63;2.42;;;20.20;40.00;;;;;;5081200;27;43798;-60
2022/03/14 04:38:32;;;;;;;2.80;2.60;;;20.20;40.00;;;;;;5081682;27;43535;-60
2022/03/14 04:40:59;;;;;;;3.03;2.83;;;20.20;40.10;;;;;;5086526;27;43386;-60
2022/03/14 04:43:27;;;;;;;2.70;2.50;;;20.10;39.90;;;;;;5081561;27;43490;-60
2022/03/14 04:45:55;;;;;;;2.70;2.50;;;20.20;40.00;;;;;;5084735;27;43811;-60
2022/03/14 04:48:23;;;;;;;3.00;2.75;;;20.20;40.00;;;;;;5085781;28;44013;-60
2022/03/14 04:50:50;;;;;;;2.42;2.33;;;20.10;40.00;;;;;;5081418;27;43469;-60
2022/03/14 04:53:18;;;;;;;2.97;2.78;;;20.10;40.00;;;;;;5077432;28;43664;-60
2022/03/14 04:55:45;;;;;;;2.60;2.40;;;20.20;40.10;;;;;;5082329;28;43796;-60
2022/03/14 04:58:14;;;;;;;2.65;2.45;;;20.10;40.00;;;;;;5080948;27;43447;-60
2022/03/14 05:00:41;;;;;;;2.58;2.38;;;20.20;40.00;;;;;;5085566;27;43410;-60
2022/03/14 05:03:10;;;;;;;2.55;2.40;;;20.20;40.10;;;;;;5085114;27;43618;-59
2022/03/14 05:05:40;;;;;;;2.50;2.35;;;20.10;40.00;;;;;;5083642;28;44862;-60
2022/03/14 05:08:07;;;;;;;2.70;2.50;;;20.10;40.10;;;;;;5085641;27;43455;-60
2022/03/14 05:10:35;;;;;;;2.50;2.30;;;20.10;40.10;;;;;;5085935;27;43403;-60
2022/03/14 05:13:03;;;;;;;2.72;2.53;;;20.10;40.10;;;;;;5085639;27;43494;-60
2022/03/14 05:15:32;;;;;;;2.60;2.40;;;20.10;40.10;;;;;;5084823;28;43804;-60
2022/03/14 05:18:03;;;;;;;2.47;2.28;;;20.10;40.10;;;;;;5085516;27;43406;-60
2022/03/14 05:20:31;;;;;;;2.50;2.40;;;20.10;40.20;;;;;;5085664;27;43510;-60
2022/03/14 05:22:59;;;;;;;2.30;2.20;;;20.00;40.10;;;;;;5085568;27;43529;-59
2022/03/14 05:25:27;;;;;;;2.35;2.15;;;20.00;40.10;;;;;;5084957;27;43810;-60
2022/03/14 05:27:54;;;;;;;2.40;2.20;;;20.00;40.10;;;;;;5085249;27;44845;-60
2022/03/14 05:30:23;;;;;;;2.55;2.35;;;20.00;40.20;;;;;;5085451;27;43545;-60
2022/03/14 05:32:51;;;;;;;2.70;2.50;;;20.00;40.20;;;;;;5085420;28;43478;-60
2022/03/14 05:35:19;;;;;;;2.53;2.33;;;20.00;40.20;;;;;;5084844;27;43806;-60
2022/03/14 05:37:47;;;;;;;2.60;2.40;;;20.00;40.30;;;;;;5085068;27;43499;-59
2022/03/14 05:40:18;;;;;;;2.50;2.30;;;20.00;40.30;;;;;;5085475;28;43382;-60
2022/03/14 05:42:48;;;;;;;2.63;2.42;;;20.00;40.30;;;;;;5085197;27;43562;-60
2022/03/14 05:45:20;;;;;;;2.30;2.10;;;20.00;40.30;;;;;;5080172;28;44967;-60
2022/03/14 05:47:48;;;;;;;2.40;2.20;;;20.00;40.20;;;;;;5084829;27;43482;-60
2022/03/14 05:50:16;;;;;;;2.40;2.20;;;20.00;40.20;;;;;;5085315;27;43445;-60
2022/03/14 05:52:43;;;;;;;2.30;2.20;;;20.00;40.30;;;;;;5084840;27;43462;-60
2022/03/14 05:55:11;;;;;;;2.13;2.03;;;20.00;40.30;;;;;;5084617;27;46052;-60
2022/03/14 05:57:39;;;;;;;2.30;2.20;;;19.90;40.30;;;;;;5084991;27;43837;-60
2022/03/14 06:00:08;;;;;;;2.20;2.10;;;19.90;40.30;;;;;;5082126;27;43513;-60
2022/03/14 06:02:45;;;;;;;2.17;2.00;;;19.90;40.30;;;;;;5074524;28;43578;-60
2022/03/14 06:05:14;;;;;;;2.47;2.28;;;19.90;40.30;;;;;;5079843;28;44725;-60
2022/03/14 06:07:41;;;;;;;2.00;1.90;;;19.90;40.30;;;;;;5084594;27;43642;-60
2022/03/14 06:10:09;;;;;;;2.00;1.90;;;19.90;40.30;;;;;;5082207;27;43516;-60
2022/03/14 06:12:37;;;;;;;2.13;1.92;;;19.90;40.30;;;;;;5082274;27;43471;-60
2022/03/14 06:15:09;;;;;;;2.10;2.00;;;19.90;40.30;;;;;;5079368;28;44690;-60
2022/03/14 06:17:37;;;;;;;2.40;2.20;;;19.90;40.30;;;;;;5084924;27;43481;-60
2022/03/14 06:20:05;;;;;;;2.33;2.20;;;19.90;40.40;;;;;;5082983;27;43459;-60
2022/03/14 06:22:41;;;;;;;2.03;1.88;;;19.90;40.50;;;;;;5076587;28;43462;-61
2022/03/14 06:25:09;;;;;;;2.20;2.00;;;19.90;40.60;;;;;;5079254;28;43982;-60
2022/03/14 06:27:37;;;;;;;1.85;1.75;;;19.80;40.60;;;;;;5084506;28;43720;-60
2022/03/14 06:30:06;;;;;;;2.00;1.90;;;19.80;40.50;;;;;;5083312;27;43524;-60
2022/03/14 06:32:35;;;;;;;2.40;2.10;;;19.80;40.60;;;;;;5080026;28;43462;-60
2022/03/14 06:35:05;;;;;;;1.98;1.88;;;19.80;40.60;;;;;;5076142;28;44645;-60
2022/03/14 06:37:32;;;;;;;2.03;1.70;;;19.80;40.60;;;;;;5084325;28;43715;-61
2022/03/14 06:40:01;;;;;;;1.90;1.80;;;19.80;40.60;;;;;;5079564;27;43407;-60
2022/03/14 06:42:29;;;;;;;1.90;1.80;;;19.80;40.70;;;;;;5079679;27;43474;-60
2022/03/14 06:45:01;;;;;;;2.20;2.10;;;19.80;40.70;;;;;;5083884;27;44042;-60
2022/03/14 06:47:28;;;;;;;2.00;1.90;;;19.80;40.70;;;;;;5082840;28;43446;-60
2022/03/14 06:49:56;;;;;;;1.70;1.60;;;19.80;40.70;;;;;;5082436;28;44033;-60
2022/03/14 06:52:23;;;;;;;2.40;1.73;;;19.80;40.70;;;;;;5081969;28;43457;-60
2022/03/14 06:54:51;;;;;;;2.17;1.98;;;19.80;40.70;;;;;;5080025;27;43967;-60
2022/03/14 06:57:19;;;;;;;1.88;1.77;;;19.80;40.80;;;;;;5083738;27;43445;-60
2022/03/14 06:59:46;;;;;;;1.63;1.52;;;19.70;40.80;;;;;;5079267;27;43465;-60
2022/03/14 07:02:14;;;;;;;1.60;1.50;;;19.80;40.80;;;;;;5083563;27;43541;-60
2022/03/14 07:04:42;;;;;;;1.92;1.83;;;19.80;40.70;;;;;;5083813;27;43798;-61
2022/03/14 07:07:10;;;;;;;1.70;1.60;;;19.70;40.80;;;;;;5083674;28;43484;-60
2022/03/14 07:09:37;;;;;;;1.70;1.60;;;19.80;40.90;;;;;;5083795;27;43497;-61
2022/03/14 07:12:09;;;;;;;2.15;1.70;;;19.80;40.80;;;;;;5083720;27;43490;-61
2022/03/14 07:14:37;;;;;;;1.60;1.50;;;19.80;40.90;;;;;;5087214;27;43798;-61
2022/03/14 07:17:04;;;;;;;1.77;1.67;;;19.80;40.90;;;;;;5083612;27;43371;-60
2022/03/14 07:19:35;;;;;;;1.80;1.70;;;19.80;40.90;;;;;;5083822;27;43483;-61
2022/03/14 07:22:03;;;;;;;1.77;1.63;;;19.80;40.90;;;;;;5099283;27;43450;-60
2022/03/14 07:24:32;;;;;;;1.70;1.60;;;19.80;40.90;;;;;;5081519;28;44991;-60
2022/03/14 07:26:59;;;;;;;1.70;1.60;;;19.80;40.90;;;;;;5083175;28;43496;-61
2022/03/14 07:29:27;;;;;;;1.70;1.60;;;19.80;41.00;;;;;;5083772;28;43473;-61
2022/03/14 07:31:54;;;;;;;1.60;1.50;;;19.80;41.00;;;;;;5080460;27;43521;-61
2022/03/14 07:34:22;;;;;;;1.50;1.40;;;19.80;41.00;;;;;;5083336;27;43864;-61
2022/03/14 07:36:49;;;;;;;1.60;1.50;;;19.90;41.10;;;;;;5078465;27;43733;-61
2022/03/14 07:39:17;;;;;;;1.67;1.58;;;19.90;41.10;;;;;;5080379;27;43425;-61
2022/03/14 07:41:45;;;;;;;1.50;1.40;;;19.80;41.00;;;;;;5109604;27;43636;-61
2022/03/14 07:44:12;;;;;;;2.42;1.45;;;19.80;41.10;;;;;;5083204;27;44092;-62
2022/03/14 07:46:40;;;;;;;1.60;1.50;;;19.80;41.20;;;;;;5078389;27;43455;-61
2022/03/14 07:49:08;;;;;;;1.48;1.40;;;19.80;41.10;;;;;;5081687;28;43416;-61
2022/03/14 07:51:35;;;;;;;1.60;1.50;;;19.80;41.20;;;;;;5081114;28;43518;-61
2022/03/14 07:54:03;;;;;;;1.55;1.45;;;19.90;41.20;;;;;;5083477;27;45062;-61
2022/03/14 07:56:30;;;;;;;1.42;1.20;;;19.90;41.30;;;;;;5083403;27;44031;-61
2022/03/14 07:58:58;;;;;;;1.48;1.40;;;19.90;41.30;;;;;;5083291;27;43459;-61
2022/03/14 08:01:25;;;;;;;1.40;1.30;;;20.00;41.20;;;;;;5080706;27;43510;-61
2022/03/14 08:03:53;;;;;;;1.35;1.30;;;20.00;41.20;;;;;;5077570;28;44050;-61
2022/03/14 08:06:23;;;;;;;1.52;1.42;;;20.00;41.20;;;;;;5098885;27;43443;-61
2022/03/14 08:08:52;;;;;;;1.42;1.38;;;20.10;41.20;;;;;;5078747;28;43417;-62
2022/03/14 08:11:30;;;;;;;1.30;1.30;;;20.10;41.20;;;;;;5099044;27;43495;-61
2022/03/14 08:13:58;;;;;;;1.40;1.30;;;20.10;41.20;;;;;;5082081;27;44971;-61
2022/03/14 08:16:25;;;;;;;1.23;1.17;;;20.10;41.20;;;;;;5082603;27;43984;-61
2022/03/14 08:18:54;;;;;;;1.30;1.25;;;20.10;41.20;;;;;;5082659;27;43528;-62
2022/03/14 08:21:22;;;;;;;1.60;1.38;;;20.10;41.20;;;;;;5083396;27;43492;-62
2022/03/14 08:23:50;;;;;;;1.40;1.30;;;20.10;41.20;;;;;;5083085;28;44963;-61
2022/03/14 08:26:17;;;;;;;1.45;1.35;;;20.10;41.20;;;;;;5083315;27;43690;-61
2022/03/14 08:28:45;;;;;;;1.40;1.30;;;20.10;41.20;;;;;;5082736;27;43407;-61
2022/03/14 08:31:17;;;;;;;1.30;1.30;;;20.10;41.20;;;;;;5082960;27;43446;-61
2022/03/14 08:33:45;;;;;;;1.30;1.30;;;20.20;41.20;;;;;;5082445;27;44730;-61
2022/03/14 08:36:12;;;;;;;1.40;1.10;;;20.20;41.20;;;;;;5076694;27;43478;-62
2022/03/14 08:38:40;;;;;;;1.63;1.52;;;20.20;41.20;;;;;;5085497;27;43518;-61
2022/03/14 08:41:08;;;;;;;1.88;1.40;;;20.20;41.30;;;;;;5086026;27;43500;-62
2022/03/14 08:43:35;;;;;;;1.80;1.70;;;20.30;41.40;;;;;;5086083;27;43798;-62
2022/03/14 08:46:03;;;;;;;2.20;1.52;;;20.40;41.40;;;;;;5084641;27;43952;-62
2022/03/14 08:48:31;;;;;;;1.60;1.50;;;20.50;41.40;;;;;;5087189;27;43542;-62
2022/03/14 08:50:58;;;;;;;1.50;1.40;;;20.50;41.30;;;;;;5085175;27;44140;-61
2022/03/14 08:53:25;;;;;;;1.27;1.27;;;20.70;41.30;;;;;;5085332;27;43747;-62
2022/03/14 08:55:55;;;;;;;1.30;1.27;;;20.80;41.20;;;;;;5078348;27;43499;-61
2022/03/14 08:58:25;;;;;;;1.50;1.40;;;20.80;41.10;;;;;;5085527;27;43452;-62
2022/03/14 09:00:52;;;;;;;1.40;1.30;;;20.90;41.00;;;;;;5083453;27;43438;-61
2022/03/14 09:03:20;;;;;;;1.40;1.30;;;21.00;41.00;;;;;;5080997;27;44975;-61
2022/03/14 09:05:48;;;;;;;1.40;1.30;;;21.10;41.00;;;;;;5084558;27;43476;-62
2022/03/14 09:08:15;;;;;;;1.60;1.50;;;21.10;40.80;;;;;;5082509;27;43465;-61
2022/03/14 09:10:43;;;;;;;3.35;2.47;;;21.20;40.80;;;;;;5075778;27;43945;-62
2022/03/14 09:13:10;;;;;;;3.15;2.80;;;21.20;40.80;;;;;;5081700;27;44059;-62
2022/03/14 09:15:38;;;;;;;2.78;2.58;;;21.30;41.00;;;;;;5083691;27;43584;-62
2022/03/14 09:18:06;;;;;;;3.35;2.97;;;21.30;41.00;;;;;;5085064;27;43495;-62
2022/03/14 09:20:39;;;;;;;3.25;2.72;;;21.40;41.10;;;;;;5084530;27;43446;-61
2022/03/14 09:23:10;;;;;;;5.57;2.58;;;21.50;41.10;;;;;;5084813;27;43793;-61
2022/03/14 09:25:37;;;;;;;2.58;2.38;;;21.70;41.10;;;;;;5083246;27;43645;-61
2022/03/14 09:28:05;;;;;;;2.78;2.58;;;21.80;41.10;;;;;;5081187;27;43443;-61
2022/03/14 09:30:32;;;;;;;2.35;2.20;;;21.90;41.10;;;;;;5081956;27;43701;-62
2022/03/14 09:33:00;;;;;;;3.35;2.33;;;22.00;41.00;;;;;;5081442;27;43588;-61
2022/03/14 09:35:27;;;;;;;2.30;2.10;;;22.10;41.10;;;;;;5080333;27;44208;-61
2022/03/14 09:37:55;;;;;;;2.40;2.20;;;22.20;40.80;;;;;;5081734;27;44093;-61
2022/03/14 09:40:23;;;;;;;2.28;2.08;;;22.30;40.70;;;;;;5081663;27;43632;-62
2022/03/14 09:42:55;;;;;;;2.28;2.08;;;22.30;40.70;;;;;;5084479;27;43772;-61
2022/03/14 09:45:23;;;;;;;3.20;2.00;;;22.40;40.50;;;;;;5081156;27;43575;-61
2022/03/14 09:47:58;;;;;;;2.33;2.10;;;22.50;40.60;;;;;;5075179;27;43470;-61
2022/03/14 09:50:29;;;;;;;3.50;2.08;;;22.50;40.60;;;;;;5081206;27;43506;-61
2022/03/14 09:52:58;;;;;;;2.08;1.95;;;22.50;40.60;;;;;;5084399;27;44102;-61
2022/03/14 09:55:27;;;;;;;2.67;1.77;;;22.60;40.60;;;;;;5083712;27;43471;-61
2022/03/14 09:57:55;;;;;;;2.38;1.90;;;22.70;40.70;;;;;;5083917;27;43546;-61
2022/03/14 10:00:22;;;;;;;2.08;1.90;;;22.70;40.70;;;;;;5080607;27;43627;-61
2022/03/14 10:02:50;;;;;;;4.20;1.90;;;22.80;40.40;;;;;;5082758;27;43755;-61
2022/03/14 10:05:19;;;;;;;2.78;1.77;;;22.80;40.40;;;;;;5084720;27;43584;-61
2022/03/14 10:07:46;;;;;;;1.80;1.70;;;22.90;40.40;;;;;;5083410;27;43464;-61
2022/03/14 10:10:16;;;;;;;1.63;1.52;;;23.00;40.40;;;;;;5087155;27;43654;-61
2022/03/14 10:12:45;;;;;;;1.63;1.52;;;23.00;40.20;;;;;;5082693;27;43808;-61
2022/03/14 10:15:13;;;;;;;2.33;1.80;;;23.10;40.20;;;;;;5085202;27;44126;-61
2022/03/14 10:17:41;;;;;;;1.60;1.50;;;23.20;40.10;;;;;;5088099;27;43425;-61
2022/03/14 10:20:09;;;;;;;1.63;1.52;;;23.30;40.10;;;;;;5083687;27;43451;-61
2022/03/14 10:22:38;;;;;;;1.73;1.63;;;23.30;39.90;;;;;;5082192;27;43856;-62
2022/03/14 10:25:09;;;;;;;2.47;1.70;;;23.40;39.90;;;;;;5083357;27;43441;-61
2022/03/14 10:27:38;;;;;;;;;;;23.50;39.80;;;;;;5081950;27;43409;-61
2022/03/14 10:30:20;;;;;;;3.38;1.50;;;23.50;39.80;;;;;;5085874;27;43662;-61
2022/03/14 10:32:49;;;;;;;2.05;1.40;;;23.60;39.80;;;;;;5083789;27;43841;-61
2022/03/14 10:35:20;;;;;;;2.25;1.70;;;23.60;39.70;;;;;;5082680;27;43497;-61
2022/03/14 10:37:58;;;;;;;1.65;1.55;;;23.60;39.70;;;;;;5083738;27;43442;-61
2022/03/14 10:40:33;;;;;;;3.13;1.60;;;23.80;39.60;;;;;;5080864;27;43464;-62
2022/03/14 10:43:01;;;;;;;2.65;2.03;;;23.80;39.70;;;;;;5083312;27;43870;-61
2022/03/14 10:45:33;;;;;;;2.25;1.85;;;23.80;39.60;;;;;;5082879;27;43466;-61
2022/03/14 10:48:02;;;;;;;2.65;1.80;;;23.80;39.60;;;;;;5079150;27;43526;-61
2022/03/14 10:50:31;;;;;;;1.95;1.65;;;23.80;39.50;;;;;;5078662;27;43533;-60
2022/03/14 10:53:19;;;;;;;2.50;2.10;;;23.80;39.50;;;;;;5083939;27;44061;-60
2022/03/14 10:55:49;;;;;;;2.50;2.00;;;23.90;39.50;;;;;;5081276;27;43439;-60
2022/03/14 10:58:19;;;;;;;1.90;1.80;;;23.90;39.60;;;;;;5081743;27;43566;-60
2022/03/14 11:01:13;;;;;;;2.85;2.20;;;23.90;39.60;;;;;;5080755;27;43436;-61
2022/03/14 11:03:45;;;;;;;3.08;2.13;;;23.90;39.60;;;;;;5080135;27;43756;-60
2022/03/14 11:06:14;;;;;;;2.00;1.90;;;23.90;39.60;;;;;;5082389;27;43476;-61
2022/03/14 11:08:45;;;;;;;2.25;2.15;;;23.90;39.60;;;;;;5085472;27;43497;-60
2022/03/14 11:11:16;;;;;;;2.30;2.10;;;23.90;39.70;;;;;;5083283;27;43560;-60
2022/03/14 11:13:46;;;;;;;2.30;2.10;;;23.90;39.70;;;;;;5079190;27;43643;-61
2022/03/14 11:16:21;;;;;;;2.53;2.00;;;23.90;39.70;;;;;;5074356;27;43514;-60
2022/03/14 11:18:50;;;;;;;2.40;2.05;;;23.90;39.80;;;;;;5080408;27;43435;-60
2022/03/14 11:21:21;;;;;;;2.30;2.10;;;23.90;39.80;;;;;;5072609;27;43664;-60
2022/03/14 11:23:51;;;;;;;1.70;1.60;;;23.90;39.90;;;;;;5079918;27;43965;-60
2022/03/14 11:26:22;;;;;;;1.85;1.75;;;23.90;39.90;;;;;;5081862;27;43584;-60
2022/03/14 11:28:51;;;;;;;2.25;1.73;;;23.80;40.00;;;;;;5080248;27;43467;-60
2022/03/14 11:31:22;;;;;;;2.15;1.70;;;23.90;40.00;;;;;;5083169;27;43638;-61
2022/03/14 11:33:51;;;;;;;1.52;1.42;;;23.90;40.00;;;;;;5076983;27;43798;-60
2022/03/14 11:36:22;;;;;;;2.17;1.70;;;23.90;40.10;;;;;;5080674;27;43878;-60
2022/03/14 11:38:49;;;;;;;1.65;1.55;;;23.90;40.10;;;;;;5082320;27;43462;-60
2022/03/14 11:41:18;;;;;;;1.83;1.40;;;23.90;40.10;;;;;;5088297;27;43489;-60
2022/03/14 11:43:48;;;;;;;1.58;1.48;;;23.80;40.10;;;;;;5080760;27;44976;-60
2022/03/14 11:46:36;;;;;;;1.90;1.58;;;23.80;40.10;;;;;;5081662;27;43525;-60
2022/03/14 11:49:14;;;;;;;2.15;1.50;;;23.80;40.80;;;;;;5078581;27;43513;-61
2022/03/14 11:51:42;;;;;;;2.20;1.50;;;23.80;40.10;;;;;;5080172;27;43499;-61
2022/03/14 11:54:11;;;;;;;1.60;1.40;;;23.80;40.20;;;;;;5081927;27;44704;-60
2022/03/14 11:56:52;;;;;;;2.20;1.42;;;23.80;40.10;;;;;;5081635;27;43788;-61
2022/03/14 11:59:27;;;;;;;2.28;1.60;;;23.80;40.20;;;;;;5080007;27;43436;-61
2022/03/14 12:02:00;;;;;;;3.10;1.50;;;23.80;40.20;;;;;;5082192;27;43455;-60
2022/03/14 12:04:33;;;;;;;1.45;1.30;;;23.70;40.30;;;;;;5081818;27;43907;-61
2022/03/14 12:07:12;;;;;;;1.98;1.50;;;23.70;40.40;;;;;;5081997;27;43509;-61
2022/03/14 12:09:45;;;;;;;2.15;1.60;;;23.60;40.40;;;;;;5082167;27;43429;-60
2022/03/14 12:12:21;;;;;;;3.42;1.38;;;23.60;40.50;;;;;;5086066;27;43680;-60
2022/03/14 12:14:56;;;;;;;2.70;1.92;;;23.60;40.50;;;;;;5081495;27;44046;-61
2022/03/14 12:17:24;;;;;;;3.10;1.73;;;23.60;40.60;;;;;;5086430;27;43457;-60
2022/03/14 12:20:00;;;;;;;1.83;1.35;;;23.50;40.50;;;;;;5083723;27;43488;-60
2022/03/14 12:22:27;;;;;;;2.03;1.60;;;23.50;40.50;;;;;;5084333;27;43469;-60
2022/03/14 12:24:55;;;;;;;2.40;1.42;;;23.50;40.70;;;;;;5084764;27;44045;-60
2022/03/14 12:27:29;;;;;;;2.38;1.60;;;23.40;40.70;;;;;;5081918;27;43516;-60
2022/03/14 12:29:58;;;;;;;2.30;1.55;;;23.40;40.70;;;;;;5083611;27;43473;-61
2022/03/14 12:32:33;;;;;;;2.25;1.40;;;23.40;40.70;;;;;;5086087;27;43442;-61
2022/03/14 12:35:07;;;;;;;2.42;1.50;;;23.40;40.70;;;;;;5104339;27;45922;-60
2022/03/14 12:37:41;;;;;;;2.67;1.40;;;23.40;40.60;;;;;;5082786;27;43710;-62
2022/03/14 12:40:29;;;;;;;2.42;1.42;;;23.40;40.70;;;;;;5085043;27;43463;-61
2022/03/14 12:43:12;;;;;;;1.60;1.50;;;23.40;40.80;;;;;;5077228;27;43499;-61
2022/03/14 12:45:41;;;;;;;2.08;1.20;;;23.40;40.70;;;;;;5082883;27;43809;-61
2022/03/14 12:48:29;;;;;;;1.70;1.30;;;23.40;40.80;;;;;;5084937;27;43674;-60
2022/03/14 12:51:01;;;;;;;1.95;1.30;;;23.40;40.80;;;;;;5080029;27;44064;-61
2022/03/14 12:53:29;;;;;;;2.33;1.60;;;23.40;40.80;;;;;;5081735;27;43498;-61
2022/03/14 12:55:59;;;;;;;2.08;1.40;;;23.40;40.90;;;;;;5083666;27;44152;-61
2022/03/14 12:58:33;;;;;;;2.42;1.40;;;23.40;40.80;;;;;;5084875;27;43437;-61